createdAt,value
2022-11-14T00:00:45.849Z,101932.91
2022-11-14T00:03:31.209Z,101931.25
2022-11-14T00:06:17.057Z,101924.91
2022-11-14T00:09:02.936Z,101923.19
2022-11-14T00:11:48.584Z,101927.00
2022-11-14T00:14:33.996Z,101922.25
2022-11-14T00:17:19.686Z,101924.63
2022-11-14T00:20:07.511Z,101919.38
2022-11-14T00:22:52.787Z,101926.44
2022-11-14T00:25:38.267Z,101926.09
2022-11-14T00:28:23.660Z,101916.25
2022-11-14T00:31:10.558Z,101921.09
2022-11-14T00:33:56.054Z,101917.09
2022-11-14T00:36:41.419Z,101915.47
2022-11-14T00:39:27.098Z,101919.03
2022-11-14T00:42:12.857Z,101915.13
2022-11-14T00:44:58.331Z,101913.75
2022-11-14T00:47:43.801Z,101912.13
2022-11-14T00:50:29.425Z,101911.22
2022-11-14T00:53:15.171Z,101909.53
2022-11-14T00:56:01.267Z,101909.06
2022-11-14T00:58:46.698Z,101898.56
2022-11-14T01:01:32.169Z,101897.50
2022-11-14T01:04:17.619Z,101897.16
2022-11-14T01:07:02.879Z,101898.22
2022-11-14T01:09:48.271Z,101891.09
2022-11-14T01:12:34.704Z,101896.81
2022-11-14T01:15:19.724Z,101894.41
2022-11-14T01:18:05.147Z,101887.75
2022-11-14T01:20:50.588Z,101889.19
2022-11-14T01:23:36.639Z,101883.09
2022-11-14T01:26:22.467Z,101886.09
2022-11-14T01:29:07.846Z,101892.19
2022-11-14T01:31:54.085Z,101879.28
2022-11-14T01:34:39.692Z,101881.78
2022-11-14T01:37:25.939Z,101878.50
2022-11-14T01:40:12.119Z,101884.31
2022-11-14T01:43:19.230Z,101885.44
2022-11-14T01:46:04.436Z,101873.34
2022-11-14T01:48:57.348Z,101878.16
2022-11-14T01:51:53.619Z,101876.53
2022-11-14T01:54:43.347Z,101863.50
2022-11-14T01:57:34.162Z,101872.22
2022-11-14T02:00:19.641Z,101869.19
2022-11-14T02:03:05.461Z,101862.34
2022-11-14T02:05:52.360Z,101863.63
2022-11-14T02:08:39.250Z,101871.84
2022-11-14T02:11:28.890Z,101868.25
2022-11-14T02:14:14.548Z,101869.34
2022-11-14T02:17:27.898Z,101870.16
2022-11-14T02:20:11.952Z,101865.16
2022-11-14T02:22:57.471Z,101866.19
2022-11-14T02:25:42.994Z,101868.41
2022-11-14T02:28:29.229Z,101860.72
2022-11-14T02:31:16.539Z,101865.66
2022-11-14T02:34:02.095Z,101865.19
2022-11-14T02:36:47.536Z,101866.59
2022-11-14T02:39:33.116Z,101867.69
2022-11-14T02:42:18.796Z,101863.25
2022-11-14T02:45:04.750Z,101860.28
2022-11-14T02:47:50.073Z,101853.97
2022-11-14T02:50:35.652Z,101848.53
2022-11-14T02:53:21.094Z,101853.44
2022-11-14T02:56:06.769Z,101861.38
2022-11-14T02:58:51.932Z,101858.44
2022-11-14T03:01:37.107Z,101853.19
2022-11-14T03:04:22.298Z,101854.69
2022-11-14T03:25:34.502Z,101862.84
2022-11-14T03:28:20.039Z,101860.19
2022-11-14T03:31:06.595Z,101863.31
2022-11-14T03:33:52.026Z,101857.66
2022-11-14T03:36:37.827Z,101864.03
2022-11-14T03:39:23.540Z,101867.03
2022-11-14T03:42:09.694Z,101862.53
2022-11-14T03:44:55.085Z,101866.97
2022-11-14T03:47:40.398Z,101862.91
2022-11-14T03:50:25.582Z,101868.16
2022-11-14T03:53:11.558Z,101862.69
2022-11-14T03:55:56.908Z,101861.25
2022-11-14T03:58:42.173Z,101863.44
2022-11-14T04:01:29.212Z,101870.06
2022-11-14T04:04:15.337Z,101867.63
2022-11-14T04:07:00.934Z,101868.75
2022-11-14T04:09:47.256Z,101869.00
2022-11-14T04:12:32.957Z,101861.19
2022-11-14T04:15:19.045Z,101865.59
2022-11-14T04:18:04.374Z,101861.50
2022-11-14T04:20:49.795Z,101874.63
2022-11-14T04:23:35.169Z,101882.34
2022-11-14T04:26:20.653Z,101885.03
2022-11-14T04:29:06.029Z,101870.97
2022-11-14T04:31:51.454Z,101882.75
2022-11-14T04:34:36.818Z,101876.25
2022-11-14T04:37:22.175Z,101872.09
2022-11-14T04:40:08.527Z,101879.19
2022-11-14T04:42:53.939Z,101877.56
2022-11-14T04:45:39.280Z,101876.13
2022-11-14T04:48:24.837Z,101876.13
2022-11-14T04:51:10.121Z,101866.00
2022-11-14T04:53:55.672Z,101874.88
2022-11-14T04:56:41.139Z,101879.00
2022-11-14T04:59:26.567Z,101883.13
2022-11-14T05:02:12.204Z,101882.34
2022-11-14T05:04:57.575Z,101881.25
2022-11-14T05:07:43.280Z,101889.66
2022-11-14T05:10:28.862Z,101889.66
2022-11-14T05:13:14.365Z,101891.69
2022-11-14T05:16:01.354Z,101896.69
2022-11-14T05:18:47.214Z,101891.56
2022-11-14T05:21:33.071Z,101894.72
2022-11-14T05:24:19.946Z,101892.94
2022-11-14T05:27:05.930Z,101890.44
2022-11-14T05:29:51.441Z,101896.03
2022-11-14T05:32:36.880Z,101899.94
2022-11-14T05:35:22.465Z,101900.16
2022-11-14T05:38:08.489Z,101908.34
2022-11-14T05:40:54.104Z,101899.81
2022-11-14T05:43:40.335Z,101909.13
2022-11-14T05:46:25.717Z,101906.03
2022-11-14T05:49:11.386Z,101901.31
2022-11-14T05:51:57.048Z,101916.19
2022-11-14T05:54:42.253Z,101909.13
2022-11-14T05:57:27.638Z,101909.44
2022-11-14T06:00:13.738Z,101912.50
2022-11-14T06:02:59.518Z,101918.88
2022-11-14T06:05:45.006Z,101922.75
2022-11-14T06:08:31.307Z,101910.44
2022-11-14T06:11:19.548Z,101911.25
2022-11-14T06:14:10.544Z,101911.25
2022-11-14T06:16:56.676Z,101917.16
2022-11-14T06:19:42.147Z,101929.66
2022-11-14T06:22:27.604Z,101927.00
2022-11-14T06:25:13.338Z,101918.91
2022-11-14T06:27:59.595Z,101914.66
2022-11-14T06:30:45.133Z,101914.47
2022-11-14T06:33:35.385Z,101915.53
2022-11-14T06:36:21.011Z,101914.75
2022-11-14T06:39:06.637Z,101915.38
2022-11-14T06:41:52.146Z,101918.41
2022-11-14T06:44:37.635Z,101916.72
2022-11-14T06:47:23.242Z,101915.41
2022-11-14T06:50:08.990Z,101917.00
2022-11-14T06:52:54.359Z,101912.59
2022-11-14T06:55:39.746Z,101912.34
2022-11-14T06:58:33.266Z,101900.13
2022-11-14T07:01:24.310Z,101903.19
2022-11-14T07:04:09.828Z,101912.31
2022-11-14T07:06:55.205Z,101907.44
2022-11-14T07:09:40.481Z,101906.22
2022-11-14T07:12:26.256Z,101900.72
2022-11-14T07:15:11.518Z,101906.50
2022-11-14T07:17:58.296Z,101905.03
2022-11-14T07:20:43.716Z,101904.56
2022-11-14T07:23:30.909Z,101909.31
2022-11-14T07:26:16.800Z,101910.59
2022-11-14T07:29:03.045Z,101909.00
2022-11-14T07:31:48.726Z,101898.06
2022-11-14T07:34:34.041Z,101900.75
2022-11-14T07:37:19.482Z,101901.69
2022-11-14T07:40:05.585Z,101906.44
2022-11-14T07:42:52.403Z,101897.28
2022-11-14T07:45:37.950Z,101895.72
2022-11-14T07:48:23.662Z,101895.94
2022-11-14T07:51:17.947Z,101884.97
2022-11-14T07:54:03.514Z,101887.66
2022-11-14T07:56:48.817Z,101893.09
2022-11-14T07:59:34.416Z,101896.50
2022-11-14T08:02:19.719Z,101887.91
2022-11-14T08:05:05.413Z,101894.41
2022-11-14T08:07:51.671Z,101899.44
2022-11-14T08:10:37.202Z,101898.72
2022-11-14T08:13:32.204Z,101896.53
2022-11-14T08:16:18.555Z,101901.88
2022-11-14T08:19:03.959Z,101900.38
2022-11-14T08:21:49.398Z,101895.09
2022-11-14T08:24:35.049Z,101883.56
2022-11-14T08:27:20.382Z,101887.06
2022-11-14T08:30:06.126Z,101887.47
2022-11-14T08:32:51.821Z,101886.25
2022-11-14T08:35:37.258Z,101884.63
2022-11-14T08:38:22.556Z,101878.94
2022-11-14T08:41:07.969Z,101886.13
2022-11-14T08:43:53.557Z,101878.44
2022-11-14T08:46:38.974Z,101877.56
2022-11-14T08:49:24.116Z,101878.31
2022-11-14T08:52:15.327Z,101871.81
2022-11-14T08:55:01.916Z,101865.69
2022-11-14T08:57:49.619Z,101875.44
2022-11-14T09:00:35.805Z,101862.88
2022-11-14T09:03:21.311Z,101865.66
2022-11-14T09:06:06.788Z,101867.53
2022-11-14T09:08:52.827Z,101874.66
2022-11-14T09:11:38.538Z,101865.78
2022-11-14T09:14:24.070Z,101868.97
2022-11-14T09:17:09.255Z,101869.88
2022-11-14T09:19:54.607Z,101869.53
2022-11-14T09:22:39.728Z,101869.09
2022-11-14T09:25:26.625Z,101861.03
2022-11-14T09:28:11.904Z,101858.91
2022-11-14T09:31:05.636Z,101851.47
2022-11-14T09:33:50.707Z,101847.69
2022-11-14T09:36:36.146Z,101855.44
2022-11-14T09:39:22.034Z,101849.47
2022-11-14T09:42:23.260Z,101857.41
2022-11-14T09:45:14.976Z,101851.41
2022-11-14T09:48:25.925Z,101846.38
2022-11-14T09:51:17.197Z,101840.44
2022-11-14T09:54:11.421Z,101840.13
2022-11-14T09:56:57.198Z,101833.38
2022-11-14T09:59:42.569Z,101835.00
2022-11-14T10:02:28.680Z,101833.38
2022-11-14T10:05:29.992Z,101837.16
2022-11-14T10:09:06.384Z,101824.56
2022-11-14T10:12:13.806Z,101816.50
2022-11-14T10:15:22.721Z,101817.38
2022-11-14T10:18:23.591Z,101813.09
2022-11-14T10:21:11.933Z,101816.00
2022-11-14T10:24:36.065Z,101803.63
2022-11-14T10:28:02.308Z,101813.19
2022-11-14T10:31:06.645Z,101803.00
2022-11-14T10:34:22.753Z,101809.28
2022-11-14T10:37:20.356Z,101797.09
2022-11-14T10:40:20.062Z,101806.44
2022-11-14T10:43:30.195Z,101795.78
2022-11-14T10:46:38.004Z,101788.38
2022-11-14T10:49:25.782Z,101790.66
2022-11-14T10:52:16.260Z,101789.44
2022-11-14T10:55:08.400Z,101785.97
2022-11-14T10:57:53.755Z,101785.63
2022-11-14T11:00:39.146Z,101797.13
2022-11-14T11:03:42.188Z,101793.22
2022-11-14T11:06:28.768Z,101795.81
2022-11-14T11:09:38.307Z,101793.59
2022-11-14T11:12:47.937Z,101794.44
2022-11-14T11:15:41.082Z,101787.38
2022-11-14T11:18:34.002Z,101792.44
2022-11-14T11:21:22.376Z,101783.25
2022-11-14T11:24:09.142Z,101784.97
2022-11-14T11:27:20.570Z,101784.41
2022-11-14T11:30:08.549Z,101776.13
2022-11-14T11:32:53.766Z,101777.97
2022-11-14T11:35:41.539Z,101777.66
2022-11-14T11:38:29.982Z,101778.00
2022-11-14T11:42:07.725Z,101780.81
2022-11-14T11:44:46.009Z,101789.72
2022-11-14T11:47:35.991Z,101780.59
2022-11-14T11:50:24.345Z,101774.78
2022-11-14T11:53:29.286Z,101775.53
2022-11-14T11:56:17.688Z,101772.88
2022-11-14T11:59:39.124Z,101766.47
2022-11-14T12:02:27.048Z,101773.50
2022-11-14T12:05:42.939Z,101773.88
2022-11-14T12:08:51.071Z,101766.41
2022-11-14T12:11:39.879Z,101762.81
2022-11-14T12:14:45.378Z,101766.50
2022-11-14T12:17:49.396Z,101759.59
2022-11-14T12:21:02.749Z,101761.97
2022-11-14T12:24:22.374Z,101756.91
2022-11-14T12:27:19.836Z,101765.06
2022-11-14T12:30:13.813Z,101758.03
2022-11-14T12:33:08.452Z,101760.13
2022-11-14T12:35:57.968Z,101756.53
2022-11-14T12:38:48.287Z,101767.50
2022-11-14T12:41:38.202Z,101764.94
2022-11-14T12:44:27.602Z,101764.13
2022-11-14T12:47:15.879Z,101762.91
2022-11-14T12:50:02.478Z,101760.31
2022-11-14T12:52:54.937Z,101770.00
2022-11-14T12:55:46.456Z,101767.91
2022-11-14T12:58:43.442Z,101768.69
2022-11-14T13:01:50.359Z,101757.91
2022-11-14T13:04:42.888Z,101758.13
2022-11-14T13:07:43.782Z,101764.13
2022-11-14T13:10:37.982Z,101761.16
2022-11-14T13:13:42.618Z,101761.81
2022-11-14T13:16:51.295Z,101757.22
2022-11-14T13:20:04.942Z,101750.84
2022-11-14T13:22:50.433Z,101756.13
2022-11-14T13:25:35.913Z,101751.19
2022-11-14T13:28:36.536Z,101747.88
2022-11-14T13:31:42.660Z,101749.34
2022-11-14T13:34:36.272Z,101739.78
2022-11-14T13:37:48.680Z,101739.22
2022-11-14T13:40:48.412Z,101738.91
2022-11-14T13:43:52.574Z,101747.75
2022-11-14T13:47:04.118Z,101742.78
2022-11-14T13:49:59.299Z,101749.69
2022-11-14T13:52:49.233Z,101746.47
2022-11-14T13:55:46.799Z,101750.69
2022-11-14T13:58:39.643Z,101748.69
2022-11-14T14:02:03.610Z,101749.78
2022-11-14T14:04:54.760Z,101747.56
2022-11-14T14:08:05.150Z,101745.97
2022-11-14T14:11:19.554Z,101746.22
2022-11-14T14:14:32.439Z,101748.09
2022-11-14T14:17:24.749Z,101740.41
2022-11-14T14:20:38.012Z,101739.66
2022-11-14T14:23:26.658Z,101742.94
2022-11-14T14:26:26.957Z,101738.75
2022-11-14T14:29:28.054Z,101725.22
2022-11-14T14:32:15.339Z,101723.66
2022-11-14T14:35:00.804Z,101722.59
2022-11-14T14:37:54.264Z,101729.19
2022-11-14T14:40:42.324Z,101723.94
2022-11-14T14:43:35.031Z,101722.63
2022-11-14T14:46:32.205Z,101724.69
2022-11-14T14:49:25.786Z,101724.91
2022-11-14T14:52:40.681Z,101721.50
2022-11-14T14:55:34.641Z,101728.97
2022-11-14T14:58:23.075Z,101718.78
2022-11-14T15:01:20.623Z,101723.81
2022-11-14T15:04:08.290Z,101733.75
2022-11-14T15:06:57.297Z,101730.88
2022-11-14T15:10:19.974Z,101728.50
2022-11-14T15:27:46.593Z,101724.34
2022-11-14T15:30:37.267Z,101727.81
2022-11-14T15:33:32.362Z,101731.06
2022-11-14T15:36:17.932Z,101732.69
2022-11-14T15:39:26.889Z,101732.06
2022-11-14T15:42:19.531Z,101737.34
2022-11-14T15:45:24.965Z,101736.16
2022-11-14T15:48:18.399Z,101740.03
2022-11-14T15:51:05.799Z,101740.09
2022-11-14T15:53:53.496Z,101733.78
2022-11-14T15:56:39.067Z,101728.06
2022-11-14T15:59:26.917Z,101732.75
2022-11-14T16:02:30.981Z,101732.25
2022-11-14T16:05:22.131Z,101733.56
2022-11-14T16:08:09.475Z,101733.81
2022-11-14T16:10:55.454Z,101735.53
2022-11-14T16:13:41.339Z,101738.81
2022-11-14T16:16:26.629Z,101740.53
2022-11-14T16:19:16.689Z,101745.50
2022-11-14T16:22:03.124Z,101744.69
2022-11-14T16:24:48.865Z,101748.00
2022-11-14T16:27:34.458Z,101742.25
2022-11-14T16:30:22.802Z,101751.09
2022-11-14T16:33:09.373Z,101747.50
2022-11-14T16:35:55.057Z,101747.00
2022-11-14T16:38:51.100Z,101748.41
2022-11-14T16:41:37.900Z,101736.00
2022-11-14T16:44:24.903Z,101747.25
2022-11-14T16:47:14.887Z,101744.50
2022-11-14T16:50:01.500Z,101737.66
2022-11-14T16:52:48.306Z,101731.63
2022-11-14T16:55:33.871Z,101741.81
2022-11-14T16:58:19.296Z,101741.25
2022-11-14T17:01:07.614Z,101738.22
2022-11-14T17:04:00.088Z,101731.88
2022-11-14T17:06:46.525Z,101728.63
2022-11-14T17:09:31.735Z,101739.88
2022-11-14T17:12:17.293Z,101731.38
2022-11-14T17:15:03.150Z,101731.06
2022-11-14T17:17:50.492Z,101733.28
2022-11-14T17:20:39.043Z,101736.03
2022-11-14T17:23:24.504Z,101734.06
2022-11-14T17:26:14.966Z,101730.22
2022-11-14T17:29:00.439Z,101729.97
2022-11-14T17:31:47.057Z,101735.16
2022-11-14T17:34:32.946Z,101733.53
2022-11-14T17:37:19.337Z,101726.38
2022-11-14T17:40:05.277Z,101731.63
2022-11-14T17:42:52.436Z,101731.94
2022-11-14T17:45:41.206Z,101728.88
2022-11-14T17:48:27.349Z,101726.13
2022-11-14T17:51:14.400Z,101719.28
2022-11-14T17:53:59.726Z,101719.84
2022-11-14T17:56:49.677Z,101725.31
2022-11-14T17:59:38.885Z,101716.28
2022-11-14T18:02:24.100Z,101714.91
2022-11-14T18:05:09.559Z,101713.00
2022-11-14T18:07:54.949Z,101708.34
2022-11-14T18:10:40.601Z,101706.97
2022-11-14T18:13:26.282Z,101699.53
2022-11-14T18:16:19.481Z,101697.34
2022-11-14T18:19:05.280Z,101701.47
2022-11-14T18:21:53.984Z,101703.66
2022-11-14T18:24:43.382Z,101704.75
2022-11-14T18:27:28.769Z,101704.75
2022-11-14T18:30:39.935Z,101697.84
2022-11-14T18:33:19.470Z,101697.28
2022-11-14T18:36:08.859Z,101700.09
2022-11-14T18:38:55.971Z,101696.72
2022-11-14T18:41:41.348Z,101692.34
2022-11-14T18:44:27.733Z,101690.94
2022-11-14T18:47:13.187Z,101699.47
2022-11-14T18:50:00.090Z,101697.84
2022-11-14T18:52:45.807Z,101687.38
2022-11-14T18:55:31.277Z,101689.84
2022-11-14T18:58:16.762Z,101687.38
2022-11-14T19:01:24.946Z,101685.16
2022-11-14T19:04:11.944Z,101687.69
2022-11-14T19:06:57.561Z,101691.00
2022-11-14T19:09:44.505Z,101693.97
2022-11-14T19:12:30.156Z,101684.63
2022-11-14T19:15:15.678Z,101681.91
2022-11-14T19:18:01.848Z,101683.00
2022-11-14T19:21:02.152Z,101682.75
2022-11-14T19:23:47.625Z,101681.34
2022-11-14T19:26:32.991Z,101685.19
2022-11-14T19:29:18.482Z,101682.44
2022-11-14T19:32:04.125Z,101672.28
2022-11-14T19:34:49.444Z,101673.38
2022-11-14T19:37:34.818Z,101671.75
2022-11-14T19:40:20.173Z,101656.34
2022-11-14T19:43:07.345Z,101661.88
2022-11-14T19:45:53.114Z,101661.59
2022-11-14T19:48:39.551Z,101650.59
2022-11-14T19:51:26.135Z,101648.38
2022-11-14T19:54:11.767Z,101659.09
2022-11-14T19:56:57.068Z,101655.78
2022-11-14T19:59:42.563Z,101656.63
2022-11-14T20:02:29.633Z,101647.78
2022-11-14T20:05:15.318Z,101646.38
2022-11-14T20:08:01.085Z,101644.19
2022-11-14T20:11:03.945Z,101649.69
2022-11-14T20:13:49.758Z,101638.69
2022-11-14T20:16:36.922Z,101649.94
2022-11-14T20:19:22.034Z,101644.44
2022-11-14T20:22:07.599Z,101653.78
2022-11-14T20:24:52.974Z,101649.09
2022-11-14T20:27:38.844Z,101647.19
2022-11-14T20:30:24.580Z,101653.19
2022-11-14T20:33:10.068Z,101644.47
2022-11-14T20:35:56.095Z,101643.38
2022-11-14T20:38:41.865Z,101652.44
2022-11-14T20:41:27.183Z,101641.13
2022-11-14T20:44:13.571Z,101648.84
2022-11-14T20:46:59.213Z,101644.97
2022-11-14T20:49:45.213Z,101638.63
2022-11-14T20:52:31.195Z,101635.50
2022-11-14T20:55:17.127Z,101637.19
2022-11-14T20:58:02.367Z,101633.84
2022-11-14T21:00:50.237Z,101628.41
2022-11-14T21:03:36.417Z,101623.16
2022-11-14T21:06:21.639Z,101625.16
2022-11-14T21:09:06.856Z,101616.00
2022-11-14T21:11:52.567Z,101620.75
2022-11-14T21:14:38.149Z,101627.00
2022-11-14T21:17:23.913Z,101616.34
2022-11-14T21:20:09.700Z,101621.59
2022-11-14T21:22:55.288Z,101609.50
2022-11-14T21:25:40.877Z,101608.91
2022-11-14T21:28:29.242Z,101610.84
2022-11-14T21:31:25.457Z,101610.28
2022-11-14T21:34:13.202Z,101604.00
2022-11-14T21:36:58.386Z,101616.94
2022-11-14T21:39:45.111Z,101605.63
2022-11-14T21:42:30.333Z,101604.63
2022-11-14T21:45:15.880Z,101609.53
2022-11-14T21:48:00.820Z,101599.03
2022-11-14T21:50:46.184Z,101604.00
2022-11-14T21:53:32.220Z,101600.78
2022-11-14T21:56:25.917Z,101597.19
2022-11-14T21:59:15.530Z,101590.34
2022-11-14T22:02:21.159Z,101598.28
2022-11-14T22:05:06.931Z,101602.41
2022-11-14T22:07:53.085Z,101598.53
2022-11-14T22:10:38.953Z,101594.09
2022-11-14T22:13:24.421Z,101591.63
2022-11-14T22:16:11.601Z,101595.78
2022-11-14T22:19:03.514Z,101586.47
2022-11-14T22:21:50.985Z,101590.00
2022-11-14T22:24:36.433Z,101588.59
2022-11-14T22:27:22.138Z,101589.44
2022-11-14T22:30:07.975Z,101591.13
2022-11-14T22:32:53.642Z,101577.03
2022-11-14T22:35:39.255Z,101574.88
2022-11-14T22:38:24.755Z,101578.66
2022-11-14T22:41:16.813Z,101579.25
2022-11-14T22:44:02.772Z,101568.25
2022-11-14T22:46:47.922Z,101570.41
2022-11-14T22:49:33.221Z,101566.34
2022-11-14T22:52:18.637Z,101568.59
2022-11-14T22:55:04.156Z,101554.78
2022-11-14T22:57:49.367Z,101566.06
2022-11-14T23:00:34.830Z,101559.75
2022-11-14T23:03:21.032Z,101552.56
2022-11-14T23:06:11.479Z,101556.66
2022-11-14T23:08:57.461Z,101552.50
2022-11-14T23:11:43.011Z,101548.41
2022-11-14T23:14:28.351Z,101542.94
2022-11-14T23:17:13.714Z,101541.56
2022-11-14T23:19:59.210Z,101540.19
2022-11-14T23:22:44.562Z,101543.78
2022-11-14T23:25:30.432Z,101538.03
2022-11-14T23:28:16.532Z,101544.06
2022-11-14T23:31:02.986Z,101527.59
2022-11-14T23:33:53.557Z,101532.25
2022-11-14T23:36:38.949Z,101527.88
2022-11-14T23:39:24.552Z,101529.53
2022-11-14T23:42:10.226Z,101521.53
2022-11-14T23:44:55.732Z,101523.16
2022-11-14T23:47:40.993Z,101522.38
2022-11-14T23:50:26.958Z,101509.13
2022-11-14T23:53:12.649Z,101509.31
2022-11-14T23:56:00.701Z,101509.91
2022-11-14T23:58:46.510Z,101511.38
